createdAt,value
2022-11-08T00:01:39.736Z,100385.78
2022-11-08T00:04:09.476Z,100417.09
2022-11-08T00:06:54.584Z,100410.25
2022-11-08T00:09:39.698Z,100415.66
2022-11-08T00:12:25.419Z,100418.50
2022-11-08T00:14:52.572Z,100421.09
2022-11-08T00:17:20.154Z,100391.47
2022-11-08T00:19:46.825Z,100395.38
2022-11-08T00:22:13.912Z,100405.97
2022-11-08T00:24:40.516Z,100407.69
2022-11-08T00:27:09.678Z,100408.00
2022-11-08T00:29:37.304Z,100385.41
2022-11-08T00:32:08.589Z,100408.78
2022-11-08T00:34:35.421Z,100410.53
2022-11-08T00:37:02.886Z,100419.22
2022-11-08T00:39:29.382Z,100402.41
2022-11-08T00:41:55.926Z,100375.44
2022-11-08T00:44:22.440Z,100409.88
2022-11-08T00:46:49.441Z,100414.88
2022-11-08T00:49:16.080Z,100406.50
2022-11-08T00:51:42.519Z,100404.53
2022-11-08T00:54:13.330Z,100399.47
2022-11-08T00:56:39.890Z,100393.88
2022-11-08T00:59:06.454Z,100383.34
2022-11-08T01:01:33.061Z,100389.50
2022-11-08T01:03:59.614Z,100393.88
2022-11-08T01:06:26.788Z,100388.88
2022-11-08T01:08:55.512Z,100384.56
2022-11-08T01:11:23.488Z,100390.66
2022-11-08T01:13:51.097Z,100396.75
2022-11-08T01:16:22.739Z,100395.88
2022-11-08T01:18:50.531Z,100362.19
2022-11-08T01:21:17.672Z,100396.56
2022-11-08T01:23:45.394Z,100393.69
2022-11-08T01:26:17.522Z,100345.44
2022-11-08T01:28:44.420Z,100341.09
2022-11-08T01:31:19.442Z,100383.34
2022-11-08T01:33:51.065Z,100386.81
2022-11-08T01:36:20.940Z,100389.53
2022-11-08T01:38:47.870Z,100383.19
2022-11-08T01:41:15.730Z,100384.19
2022-11-08T01:43:51.800Z,100384.28
2022-11-08T01:46:18.318Z,100384.59
2022-11-08T01:49:03.756Z,100374.03
2022-11-08T01:51:44.806Z,100364.34
2022-11-08T01:54:14.618Z,100361.53
2022-11-08T01:56:41.753Z,100371.41
2022-11-08T01:59:10.461Z,100381.66
2022-11-08T02:01:37.135Z,100367.88
2022-11-08T02:04:04.155Z,100345.41
2022-11-08T02:06:33.049Z,100372.44
2022-11-08T02:09:01.660Z,100373.53
2022-11-08T02:11:28.549Z,100347.19
2022-11-08T02:13:55.729Z,100376.72
2022-11-08T02:16:22.249Z,100333.19
2022-11-08T02:18:49.238Z,100370.91
2022-11-08T02:21:23.928Z,100373.19
2022-11-08T02:23:52.181Z,100375.13
2022-11-08T02:26:22.339Z,100349.03
2022-11-08T02:28:49.283Z,100361.94
2022-11-08T02:31:18.379Z,100360.41
2022-11-08T02:33:45.405Z,100361.72
2022-11-08T02:36:16.126Z,100368.00
2022-11-08T02:38:45.826Z,100353.09
2022-11-08T02:41:12.613Z,100283.41
2022-11-08T02:43:39.108Z,100354.78
2022-11-08T02:46:05.796Z,100313.13
2022-11-08T02:48:32.287Z,100293.78
2022-11-08T02:50:59.425Z,100327.78
2022-11-08T02:53:25.945Z,100298.19
2022-11-08T02:55:52.428Z,100326.19
2022-11-08T02:58:19.315Z,100329.97
2022-11-08T03:00:46.558Z,100317.66
2022-11-08T03:03:13.203Z,100322.72
2022-11-08T03:05:39.686Z,100306.28
2022-11-08T03:08:06.185Z,100322.31
2022-11-08T03:10:32.673Z,100321.25
2022-11-08T03:13:01.665Z,100311.63
2022-11-08T03:15:29.391Z,100320.75
2022-11-08T03:17:56.394Z,100300.63
2022-11-08T03:20:23.936Z,100309.19
2022-11-08T03:22:59.495Z,100299.69
2022-11-08T03:25:26.231Z,100305.00
2022-11-08T03:27:52.844Z,100297.06
2022-11-08T03:30:20.082Z,100299.34
2022-11-08T03:32:47.241Z,100237.66
2022-11-08T03:35:14.536Z,100282.78
2022-11-08T03:37:41.179Z,100251.69
2022-11-08T03:40:08.532Z,100284.28
2022-11-08T03:42:34.994Z,100283.69
2022-11-08T03:45:01.570Z,100259.22
2022-11-08T03:47:28.024Z,100282.69
2022-11-08T03:49:54.606Z,100279.88
2022-11-08T03:52:21.023Z,100255.56
2022-11-08T03:54:47.463Z,100278.28
2022-11-08T03:57:13.928Z,100250.38
2022-11-08T03:59:40.497Z,100270.88
2022-11-08T04:02:07.034Z,100269.69
2022-11-08T04:04:33.524Z,100211.63
2022-11-08T04:07:00.020Z,100230.56
2022-11-08T04:09:26.572Z,100270.97
2022-11-08T04:12:11.523Z,100265.19
2022-11-08T04:14:56.962Z,100225.59
2022-11-08T04:17:43.546Z,100269.72
2022-11-08T04:20:29.138Z,100246.88
2022-11-08T04:22:55.671Z,100254.75
2022-11-08T04:25:22.306Z,100235.97
2022-11-08T04:27:48.812Z,100232.03
2022-11-08T04:30:15.277Z,100215.94
2022-11-08T04:32:41.730Z,100251.38
2022-11-08T04:35:08.272Z,100216.06
2022-11-08T04:37:34.919Z,100250.25
2022-11-08T04:40:01.422Z,100222.50
2022-11-08T04:42:27.865Z,100249.63
2022-11-08T04:44:54.333Z,100247.09
2022-11-08T04:47:20.834Z,100244.06
2022-11-08T04:49:47.266Z,100194.75
2022-11-08T04:52:15.822Z,100241.09
2022-11-08T04:54:45.414Z,100192.03
2022-11-08T04:57:12.745Z,100244.06
2022-11-08T04:59:39.387Z,100196.41
2022-11-08T05:02:06.459Z,100236.50
2022-11-08T05:04:32.992Z,100231.41
2022-11-08T05:06:59.456Z,100230.03
2022-11-08T05:09:25.935Z,100228.53
2022-11-08T05:11:52.380Z,100221.66
2022-11-08T05:14:18.963Z,100222.09
2022-11-08T05:16:45.504Z,100168.75
2022-11-08T05:19:13.355Z,100159.66
2022-11-08T05:22:15.505Z,100221.41
2022-11-08T05:24:42.030Z,100208.63
2022-11-08T05:27:08.954Z,100221.25
2022-11-08T05:29:38.628Z,100208.91
2022-11-08T05:32:08.475Z,100168.91
2022-11-08T05:34:34.980Z,100203.22
2022-11-08T05:37:01.448Z,100206.63
2022-11-08T05:39:31.934Z,100201.66
2022-11-08T05:41:58.880Z,100202.66
2022-11-08T05:44:25.400Z,100195.88
2022-11-08T05:46:51.962Z,100189.25
2022-11-08T05:49:18.469Z,100148.41
2022-11-08T05:51:44.942Z,100146.81
2022-11-08T05:54:13.008Z,100154.78
2022-11-08T05:56:39.862Z,100147.09
2022-11-08T05:59:06.470Z,100135.63
2022-11-08T06:01:33.233Z,100165.38
2022-11-08T06:03:59.822Z,100125.69
2022-11-08T06:06:26.460Z,100107.19
2022-11-08T06:08:53.792Z,100160.78
2022-11-08T06:11:24.617Z,100162.16
2022-11-08T06:13:51.855Z,100163.53
2022-11-08T06:16:19.114Z,100154.63
2022-11-08T06:18:47.034Z,100146.00
2022-11-08T06:21:15.937Z,100149.31
2022-11-08T06:23:42.645Z,100106.34
2022-11-08T06:26:09.688Z,100138.69
2022-11-08T06:28:36.453Z,100134.34
2022-11-08T06:31:04.412Z,100133.06
2022-11-08T06:33:31.577Z,100140.09
2022-11-08T06:35:58.080Z,100137.38
2022-11-08T06:38:24.659Z,100125.19
2022-11-08T06:40:51.170Z,100096.41
2022-11-08T06:43:19.900Z,100109.88
2022-11-08T06:45:47.393Z,100101.00
2022-11-08T06:48:13.883Z,100089.34
2022-11-08T06:50:41.786Z,100094.22
2022-11-08T06:53:10.725Z,100086.34
2022-11-08T06:55:37.402Z,100073.22
2022-11-08T06:58:04.264Z,100079.88
2022-11-08T07:00:31.505Z,100072.41
2022-11-08T07:03:00.110Z,100071.13
2022-11-08T07:05:27.761Z,100041.03
2022-11-08T07:07:54.717Z,100070.91
2022-11-08T07:10:22.789Z,100055.75
2022-11-08T07:12:50.873Z,100080.66
2022-11-08T07:15:17.680Z,100034.06
2022-11-08T07:17:44.115Z,100068.09
2022-11-08T07:20:11.049Z,100074.50
2022-11-08T07:22:37.602Z,100060.09
2022-11-08T07:25:04.405Z,100075.91
2022-11-08T07:27:30.900Z,100020.88
2022-11-08T07:29:57.342Z,100059.25
2022-11-08T07:32:23.801Z,100071.38
2022-11-08T07:34:50.263Z,100034.63
2022-11-08T07:37:16.757Z,100031.41
2022-11-08T07:39:43.286Z,100070.69
2022-11-08T07:42:09.788Z,100068.97
2022-11-08T07:44:36.239Z,100070.75
2022-11-08T07:47:02.707Z,100076.44
2022-11-08T07:49:29.146Z,100080.25
2022-11-08T07:51:55.540Z,100074.47
2022-11-08T07:54:22.042Z,100076.63
2022-11-08T07:56:48.491Z,100074.19
2022-11-08T07:59:15.157Z,100070.38
2022-11-08T08:01:41.760Z,100076.19
2022-11-08T08:04:09.347Z,100071.44
2022-11-08T08:06:35.954Z,100067.88
2022-11-08T08:09:02.392Z,100064.72
2022-11-08T08:11:33.521Z,100060.06
2022-11-08T08:14:00.307Z,100057.38
2022-11-08T08:16:26.813Z,100026.28
2022-11-08T08:18:56.329Z,100057.59
2022-11-08T08:21:23.228Z,100066.09
2022-11-08T08:23:49.738Z,100068.25
2022-11-08T08:26:16.246Z,100054.72
2022-11-08T08:28:42.697Z,100065.34
2022-11-08T08:31:09.186Z,100041.78
2022-11-08T08:33:37.386Z,100048.41
2022-11-08T08:36:04.196Z,100052.63
2022-11-08T08:38:32.532Z,100055.09
2022-11-08T08:40:59.578Z,100041.94
2022-11-08T08:43:27.548Z,100040.88
2022-11-08T08:45:54.714Z,100010.22
2022-11-08T08:48:21.500Z,100051.38
2022-11-08T08:50:48.317Z,100032.72
2022-11-08T08:53:15.080Z,100034.88
2022-11-08T08:55:42.835Z,100050.63
2022-11-08T08:58:10.843Z,100044.97
2022-11-08T09:03:24.138Z,100036.53
2022-11-08T09:05:50.848Z,100040.84
2022-11-08T09:08:17.324Z,100038.06
2022-11-08T09:10:43.786Z,100042.03
2022-11-08T09:13:10.564Z,100022.81
2022-11-08T09:15:39.198Z,100032.13
2022-11-08T09:18:05.961Z,99993.19
2022-11-08T09:20:32.436Z,100026.84
2022-11-08T09:23:03.131Z,100034.91
2022-11-08T09:25:29.710Z,100026.88
2022-11-08T09:27:56.254Z,100018.25
2022-11-08T09:30:22.971Z,99977.97
2022-11-08T09:33:04.976Z,100023.69
2022-11-08T09:35:31.587Z,99987.72
2022-11-08T09:37:58.653Z,100029.56
2022-11-08T09:40:54.241Z,100019.38
2022-11-08T09:43:57.205Z,99991.75
2022-11-08T09:46:49.554Z,100014.28
2022-11-08T09:49:31.690Z,100015.84
2022-11-08T09:51:59.508Z,99999.22
2022-11-08T09:54:35.355Z,100032.38
2022-11-08T09:57:05.303Z,100006.69
2022-11-08T09:59:38.257Z,100031.59
2022-11-08T10:02:16.311Z,100022.50
2022-11-08T10:04:42.971Z,100005.84
2022-11-08T10:07:28.367Z,100033.50
2022-11-08T10:10:16.685Z,100022.94
2022-11-08T10:13:13.166Z,100023.28
2022-11-08T10:16:00.633Z,100011.25
2022-11-08T10:19:06.478Z,100021.00
2022-11-08T10:22:21.660Z,100005.94
2022-11-08T10:24:58.260Z,100019.59
2022-11-08T10:27:37.493Z,99978.50
2022-11-08T10:30:07.068Z,100012.31
2022-11-08T10:32:34.797Z,99996.88
2022-11-08T10:35:04.357Z,100024.22
2022-11-08T10:37:31.717Z,99967.19
2022-11-08T10:40:01.682Z,100010.03
2022-11-08T10:42:38.283Z,100010.88
2022-11-08T10:45:05.573Z,100006.38
2022-11-08T10:47:33.141Z,99992.59
2022-11-08T10:50:04.110Z,99998.25
2022-11-08T10:52:38.319Z,100005.31
2022-11-08T10:55:09.740Z,99997.91
2022-11-08T10:57:42.922Z,99991.41
2022-11-08T11:00:21.967Z,99990.13
2022-11-08T11:02:53.723Z,99988.53
2022-11-08T11:05:26.101Z,99985.19
2022-11-08T11:08:02.323Z,99967.88
2022-11-08T11:10:50.222Z,99973.16
2022-11-08T11:13:29.053Z,99966.56
2022-11-08T11:16:00.677Z,99950.84
2022-11-08T11:18:37.449Z,99949.13
2022-11-08T11:21:13.320Z,99951.13
2022-11-08T11:23:39.765Z,99956.19
2022-11-08T11:26:08.338Z,99949.88
2022-11-08T11:28:36.153Z,99958.78
2022-11-08T11:31:09.845Z,99955.50
2022-11-08T11:33:43.790Z,99961.06
2022-11-08T11:36:13.990Z,99949.38
2022-11-08T11:38:46.840Z,99969.84
2022-11-08T11:41:17.924Z,99921.59
2022-11-08T11:43:56.262Z,99965.66
2022-11-08T11:46:30.333Z,99952.34
2022-11-08T11:49:08.589Z,99962.81
2022-11-08T11:51:35.263Z,99915.16
2022-11-08T11:54:03.081Z,99943.69
2022-11-08T11:56:41.813Z,99953.25
2022-11-08T11:59:22.623Z,99941.31
2022-11-08T12:02:07.015Z,99939.69
2022-11-08T12:05:04.573Z,99937.19
2022-11-08T12:07:35.079Z,99937.06
2022-11-08T12:10:17.680Z,99897.28
2022-11-08T12:13:04.103Z,99945.47
2022-11-08T12:15:47.696Z,99944.34
2022-11-08T12:18:41.400Z,99927.25
2022-11-08T12:21:15.704Z,99932.06
2022-11-08T12:24:20.991Z,99937.88
2022-11-08T12:26:56.676Z,99935.38
2022-11-08T12:29:30.280Z,99927.28
2022-11-08T12:32:04.399Z,99927.84
2022-11-08T12:34:44.042Z,99927.84
2022-11-08T12:37:13.493Z,99920.78
2022-11-08T12:39:48.168Z,99927.06
2022-11-08T12:42:37.228Z,99923.56
2022-11-08T12:45:19.375Z,99922.25
2022-11-08T12:48:01.102Z,99929.50
2022-11-08T12:50:50.337Z,99922.09
2022-11-08T12:53:33.009Z,99916.06
2022-11-08T12:56:01.372Z,99896.16
2022-11-08T12:58:36.952Z,99913.38
2022-11-08T13:01:07.014Z,99915.00
2022-11-08T13:03:42.941Z,99912.28
2022-11-08T13:06:51.080Z,99909.78
2022-11-08T13:09:37.725Z,99903.94
2022-11-08T13:12:49.949Z,99926.47
2022-11-08T13:15:23.997Z,99916.44
2022-11-08T13:18:11.724Z,99926.06
2022-11-08T13:20:42.512Z,99937.94
2022-11-08T13:23:13.263Z,99940.25
2022-11-08T13:25:41.856Z,99948.97
2022-11-08T13:28:40.413Z,99935.44
2022-11-08T13:32:02.673Z,99942.88
2022-11-08T13:34:48.084Z,99944.88
2022-11-08T13:37:45.653Z,99949.06
2022-11-08T14:02:47.993Z,99919.34
2022-11-08T14:05:20.628Z,99915.03
2022-11-08T14:08:08.926Z,99895.59
2022-11-08T14:10:40.100Z,99905.88
2022-11-08T14:13:15.628Z,99903.75
2022-11-08T14:16:05.564Z,99902.34
2022-11-08T14:18:32.992Z,99883.47
2022-11-08T14:20:59.746Z,99906.66
2022-11-08T14:23:32.174Z,99860.19
2022-11-08T14:26:04.754Z,99894.91
2022-11-08T14:28:31.216Z,99910.28
2022-11-08T14:39:17.576Z,99900.31
2022-11-08T14:41:48.561Z,99863.78
2022-11-08T14:44:16.335Z,99855.44
2022-11-08T14:50:34.667Z,99878.41
2022-11-08T14:53:26.952Z,99885.59
2022-11-08T14:56:02.435Z,99889.78
2022-11-08T14:58:29.761Z,99877.75
2022-11-08T15:00:56.556Z,99881.97
2022-11-08T15:03:27.146Z,99856.97
2022-11-08T15:05:59.900Z,99861.72
2022-11-08T15:08:36.077Z,99901.03
2022-11-08T15:11:08.177Z,99893.38
2022-11-08T15:13:50.701Z,99893.44
2022-11-08T15:16:18.102Z,99888.28
2022-11-08T15:18:44.954Z,99819.91
2022-11-08T15:21:11.384Z,99879.78
2022-11-08T15:23:47.905Z,99877.63
2022-11-08T15:26:43.890Z,99879.31
2022-11-08T15:29:13.332Z,99888.44
2022-11-08T15:31:55.679Z,99888.19
2022-11-08T15:34:30.933Z,99908.66
2022-11-08T15:36:57.427Z,99900.28
2022-11-08T15:39:38.972Z,99886.34
2022-11-08T15:42:13.935Z,99902.19
2022-11-08T15:45:02.347Z,99882.44
2022-11-08T15:47:41.003Z,99872.94
2022-11-08T15:50:30.867Z,99891.22
2022-11-08T15:53:02.242Z,99861.94
2022-11-08T15:55:30.590Z,99876.66
2022-11-08T15:57:58.409Z,99886.19
2022-11-08T16:00:27.382Z,99861.94
2022-11-08T16:02:54.971Z,99836.78
2022-11-08T16:05:29.779Z,99869.59
2022-11-08T16:07:56.245Z,99827.03
2022-11-08T16:10:30.293Z,99858.66
2022-11-08T16:12:58.810Z,99872.41
2022-11-08T16:15:27.025Z,99868.69
2022-11-08T16:17:53.492Z,99867.13
2022-11-08T16:20:25.123Z,99861.44
2022-11-08T16:22:52.017Z,99870.38
2022-11-08T16:25:18.535Z,99860.06
2022-11-08T16:27:47.155Z,99826.13
2022-11-08T16:30:16.284Z,99861.69
2022-11-08T16:32:43.205Z,99853.53
2022-11-08T16:35:12.655Z,99868.34
2022-11-08T16:37:39.365Z,99829.28
2022-11-08T16:40:21.515Z,99854.59
2022-11-08T16:42:50.557Z,99863.41
2022-11-08T16:45:27.989Z,99860.66
2022-11-08T16:48:04.628Z,99844.19
2022-11-08T16:50:31.148Z,99853.13
2022-11-08T16:52:58.022Z,99845.97
2022-11-08T16:55:24.588Z,99845.22
2022-11-08T16:57:50.996Z,99820.78
2022-11-08T17:00:20.044Z,99865.97
2022-11-08T17:02:52.606Z,99854.91
2022-11-08T17:05:22.694Z,99848.84
2022-11-08T17:07:53.068Z,99862.56
2022-11-08T17:10:28.037Z,99868.88
2022-11-08T17:12:54.867Z,99842.66
2022-11-08T17:15:26.409Z,99860.88
2022-11-08T17:17:57.592Z,99873.56
2022-11-08T17:20:25.135Z,99862.06
2022-11-08T17:22:52.232Z,99854.31
2022-11-08T17:25:21.335Z,99866.59
2022-11-08T17:27:49.929Z,99873.75
2022-11-08T17:30:17.115Z,99878.56
2022-11-08T17:32:44.827Z,99866.81
2022-11-08T17:35:12.676Z,99828.53
2022-11-08T17:37:39.376Z,99859.78
2022-11-08T17:40:07.271Z,99826.97
2022-11-08T17:42:37.302Z,99875.84
2022-11-08T17:45:09.364Z,99876.00
2022-11-08T17:47:39.182Z,99885.56
2022-11-08T17:50:06.463Z,99876.69
2022-11-08T17:52:33.151Z,99869.13
2022-11-08T17:54:59.645Z,99846.38
2022-11-08T17:57:26.202Z,99868.94
2022-11-08T17:59:53.015Z,99841.38
2022-11-08T18:02:19.522Z,99907.19
2022-11-08T18:04:46.754Z,99873.94
2022-11-08T18:07:13.293Z,99891.97
2022-11-08T18:09:39.838Z,99897.34
2022-11-08T18:12:06.397Z,99864.69
2022-11-08T18:14:32.992Z,99869.47
2022-11-08T18:16:59.824Z,99833.28
2022-11-08T18:19:26.334Z,99879.13
2022-11-08T18:21:52.964Z,99866.81
2022-11-08T18:24:19.616Z,99880.84
2022-11-08T18:26:46.065Z,99870.84
2022-11-08T18:29:12.561Z,99878.59
2022-11-08T18:31:39.021Z,99879.78
2022-11-08T18:34:05.629Z,99833.75
2022-11-08T18:36:32.219Z,99865.78
2022-11-08T18:39:24.064Z,99879.69
2022-11-08T18:41:53.209Z,99871.50
2022-11-08T18:44:19.752Z,99885.53
2022-11-08T18:46:46.203Z,99882.25
2022-11-08T18:49:12.744Z,99882.38
2022-11-08T18:51:39.281Z,99886.00
2022-11-08T18:54:08.118Z,99881.50
2022-11-08T18:56:34.685Z,99879.47
2022-11-08T18:59:01.261Z,99882.22
2022-11-08T19:01:27.875Z,99846.00
2022-11-08T19:03:54.449Z,99872.19
2022-11-08T19:06:20.871Z,99873.50
2022-11-08T19:08:47.350Z,99891.91
2022-11-08T19:11:14.500Z,99847.72
2022-11-08T19:13:41.572Z,99872.91
2022-11-08T19:16:17.135Z,99850.47
2022-11-08T19:18:44.752Z,99859.63
2022-11-08T19:21:17.362Z,99865.78
2022-11-08T19:23:44.147Z,99863.53
2022-11-08T19:26:16.119Z,99868.75
2022-11-08T19:28:45.392Z,99867.44
2022-11-08T19:31:13.600Z,99865.31
2022-11-08T19:33:40.100Z,99868.47
2022-11-08T19:36:09.508Z,99870.78
2022-11-08T19:38:37.112Z,99829.88
2022-11-08T19:41:04.929Z,99828.75
2022-11-08T19:43:34.661Z,99877.56
2022-11-08T19:46:03.352Z,99874.41
2022-11-08T19:48:37.693Z,99892.94
2022-11-08T19:51:06.277Z,99886.66
2022-11-08T19:53:33.242Z,99866.81
2022-11-08T19:56:09.205Z,99881.44
2022-11-08T19:58:36.805Z,99885.44
2022-11-08T20:01:08.035Z,99890.06
2022-11-08T20:03:36.874Z,99887.00
2022-11-08T20:06:04.193Z,99840.13
2022-11-08T20:08:31.561Z,99886.00
2022-11-08T20:10:58.651Z,99888.41
2022-11-08T20:13:25.577Z,99880.38
2022-11-08T20:15:52.234Z,99877.81
2022-11-08T20:18:18.982Z,99893.28
2022-11-08T20:20:45.770Z,99886.94
2022-11-08T20:23:15.497Z,99896.50
2022-11-08T20:25:41.954Z,99884.84
2022-11-08T20:28:08.723Z,99888.22
2022-11-08T20:30:35.399Z,99883.75
2022-11-08T20:33:01.962Z,99885.06
2022-11-08T20:35:28.467Z,99862.75
2022-11-08T20:37:58.285Z,99875.78
2022-11-08T20:40:24.759Z,99865.19
2022-11-08T20:42:51.299Z,99889.13
2022-11-08T20:45:17.833Z,99887.69
2022-11-08T20:47:44.463Z,99884.00
2022-11-08T20:50:11.077Z,99888.97
2022-11-08T20:52:37.655Z,99896.28
2022-11-08T20:55:04.433Z,99903.03
2022-11-08T20:57:31.078Z,99904.81
2022-11-08T20:59:57.660Z,99918.94
2022-11-08T21:02:31.154Z,99908.50
2022-11-08T21:04:57.602Z,99918.28
2022-11-08T21:10:40.860Z,99901.72
2022-11-08T21:12:57.427Z,99909.59
2022-11-08T21:15:27.069Z,99910.81
2022-11-08T21:17:53.729Z,99915.13
2022-11-08T21:20:20.190Z,99894.69
2022-11-08T21:22:46.599Z,99895.38
2022-11-08T21:25:13.041Z,99913.22
2022-11-08T21:27:39.490Z,99870.81
2022-11-08T21:30:06.736Z,99884.81
2022-11-08T21:32:33.233Z,99921.28
2022-11-08T21:34:59.940Z,99915.81
2022-11-08T21:37:26.397Z,99931.88
2022-11-08T21:39:52.904Z,99929.63
2022-11-08T21:42:19.411Z,99921.38
2022-11-08T21:44:45.858Z,99925.81
2022-11-08T21:47:12.322Z,99941.44
2022-11-08T21:49:38.818Z,99929.38
2022-11-08T21:52:05.470Z,99919.16
2022-11-08T21:54:31.918Z,99932.59
2022-11-08T21:56:58.362Z,99912.81
2022-11-08T21:59:24.782Z,99929.03
2022-11-08T22:01:51.308Z,99938.88
2022-11-08T22:04:18.093Z,99956.28
2022-11-08T22:06:47.630Z,99952.97
2022-11-08T22:09:14.352Z,99908.09
2022-11-08T22:11:41.766Z,99902.72
2022-11-08T22:14:08.356Z,99919.63
2022-11-08T22:16:34.830Z,99937.47
2022-11-08T22:19:05.717Z,99945.78
2022-11-08T22:21:39.932Z,99935.41
2022-11-08T22:24:18.278Z,99918.97
2022-11-08T22:26:45.069Z,99933.72
2022-11-08T22:29:11.597Z,99911.44
2022-11-08T22:31:38.854Z,99937.06
2022-11-08T22:34:07.842Z,99937.06
2022-11-08T22:36:36.955Z,99928.41
2022-11-08T22:39:05.643Z,99932.28
2022-11-08T22:41:32.253Z,99934.81
2022-11-08T22:43:58.753Z,99900.94
2022-11-08T22:46:25.242Z,99932.75
2022-11-08T22:48:51.943Z,99937.06
2022-11-08T22:51:18.360Z,99925.78
2022-11-08T22:53:44.883Z,99936.72
2022-11-08T22:56:12.070Z,99931.22
2022-11-08T22:58:39.083Z,99930.84
2022-11-08T23:01:15.336Z,99921.66
2022-11-08T23:03:45.117Z,99924.31
2022-11-08T23:06:12.075Z,99924.16
2022-11-08T23:08:38.641Z,99914.44
2022-11-08T23:11:24.270Z,99928.38
2022-11-08T23:14:09.530Z,99922.84
2022-11-08T23:16:40.015Z,99924.97
2022-11-08T23:19:30.660Z,99944.44
2022-11-08T23:22:16.033Z,99927.66
2022-11-08T23:24:43.045Z,99900.53
2022-11-08T23:27:29.611Z,99934.47
2022-11-08T23:30:14.686Z,99934.97
2022-11-08T23:32:43.978Z,99942.09
2022-11-08T23:35:11.351Z,99923.75
2022-11-08T23:37:38.177Z,99922.38
2022-11-08T23:40:25.232Z,99942.28
2022-11-08T23:43:29.337Z,99933.84
2022-11-08T23:45:56.001Z,99898.00
2022-11-08T23:48:22.488Z,99936.69
2022-11-08T23:50:53.766Z,99938.00
2022-11-08T23:53:22.208Z,99948.78
2022-11-08T23:55:48.864Z,99875.03
2022-11-08T23:58:15.403Z,99905.44
